East Wakefield, New Hampshire
Current Conditions -  °F | °C
As of 12:55 AM on Sunday 26 Oct 2014 (Local Time) from KLCI Reporting Station
Clear Clear  
Wind Chill: 52°   Ceiling: Unl
Heat Index: 52°   Visibility: 10mi
Dew Point: 43°   Wind: 8mph
Humidity: 71%   Direction: 240°WSW
Pressure: 29.43"   Gusts: NA
Location:  43.61°N, 71.01°W
Report Text: KLCI 260455Z AUTO 24007KT 10SM CLR 11/06 A2943 RMK AO1
Loading
Personal Weather Stations






























Interactive Weather Map
Tropical Storm Tracking
New forecast layout! Learn more

10-Day Weather Forecast

Advertisements
Track Severe Weather on mobile